CheckWX is a tool to help pilots better visualize weather data.  It is not intended as a substitute for an official pre-flight weather briefing.

20:01:50 UTC

FNHU METAR
Nova Lisboa Airport
Huambo, Angola
Current

5 hours ago

FNHU 261500Z 16007KT CAVOK 24/06 Q1021
Observed
May-26 @ 15:00 UTC
Wind
  • 160° at 7 KTS
Visibility
10,000+ meters
Flight Rules
VFR
Cloud Levels
  • Clear skies
Temperature
24°C / 75°F
Dewpoint
C / 43°F
Humidity
31%
Altimeter
30.15" Hg
Pressure
1020.92 hPa
Previous

7 hours ago

FNHU 261300Z 16012KT CAVOK 24/06 Q1022
Observed
May-26 @ 13:00 UTC
Wind
  • 160° at 12 KTS
Visibility
10,000+ meters
Flight Rules
VFR
Cloud Levels
  • Clear skies
Temperature
24°C / 75°F
Dewpoint
C / 43°F
Humidity
31%
Altimeter
30.18" Hg
Pressure
1021.92 hPa
Previous

9 hours ago

FNHU 261100Z 11009KT CAVOK 22/05 Q1023
Observed
May-26 @ 11:00 UTC
Wind
  • 110° at 9 KTS
Visibility
10,000+ meters
Flight Rules
VFR
Cloud Levels
  • Clear skies
Temperature
22°C / 72°F
Dewpoint
C / 41°F
Humidity
33%
Altimeter
30.21" Hg
Pressure
1022.92 hPa